Time;durP1;ratioP1;P1;durP2;ratioP2;P2;SDS_P1;SDS_P2;PMS_P1;PMS_P2;Temp;Humidity;BMP_temperature;BMP_pressure;BME280_temperature;BME280_humidity;BME280_pressure;Samples;Min_cycle;Max_cycle;Signal;HPM_P1;HPM_P2
2021/06/05 00:02:22;;;;;;;89.60;43.05;;;16.10;99.90;;;;;;5055001;28;20076;-69
2021/06/05 00:04:48;;;;;;;98.85;46.25;;;16.20;99.90;;;;;;5054869;28;20043;-69
2021/06/05 00:07:14;;;;;;;96.82;44.08;;;16.20;99.90;;;;;;5054803;28;20485;-69
2021/06/05 00:09:40;;;;;;;127.13;45.80;;;16.30;99.90;;;;;;5054407;28;20115;-69
2021/06/05 00:12:07;;;;;;;110.78;45.03;;;15.90;99.90;;;;;;5055249;28;20077;-70
2021/06/05 00:14:33;;;;;;;91.30;42.03;;;15.80;99.90;;;;;;5055401;28;20047;-69
2021/06/05 00:17:00;;;;;;;81.22;40.75;;;15.80;99.90;;;;;;5055226;28;20412;-69
2021/06/05 00:19:25;;;;;;;81.45;40.58;;;15.60;99.90;;;;;;5054365;28;20052;-70
2021/06/05 00:21:51;;;;;;;87.32;42.17;;;15.60;99.90;;;;;;5054635;28;20037;-69
2021/06/05 00:24:18;;;;;;;93.13;42.53;;;15.70;99.90;;;;;;5054499;28;20041;-70
2021/06/05 00:26:44;;;;;;;85.25;42.38;;;15.70;99.90;;;;;;5054457;28;20068;-70
2021/06/05 00:29:10;;;;;;;88.53;43.92;;;15.80;99.90;;;;;;5054437;28;20064;-70
2021/06/05 00:31:35;;;;;;;84.40;42.17;;;16.00;99.90;;;;;;5054269;28;20041;-70
2021/06/05 00:34:02;;;;;;;87.75;42.08;;;16.10;99.90;;;;;;5054243;28;20045;-69
2021/06/05 00:36:28;;;;;;;88.55;40.88;;;16.00;99.90;;;;;;5054514;28;20473;-69
2021/06/05 00:38:54;;;;;;;75.28;37.67;;;15.80;99.90;;;;;;5053953;28;20032;-70
2021/06/05 00:41:23;;;;;;;68.93;36.55;;;15.70;99.90;;;;;;5054146;28;20116;-69
2021/06/05 00:43:55;;;;;;;69.63;33.78;;;15.70;99.90;;;;;;5053981;28;20041;-69
2021/06/05 00:46:22;;;;;;;68.63;36.05;;;15.70;99.90;;;;;;5054127;28;20091;-69
2021/06/05 00:48:48;;;;;;;58.05;33.10;;;15.60;99.90;;;;;;5053810;28;20041;-69
2021/06/05 00:51:16;;;;;;;62.88;34.97;;;15.60;99.90;;;;;;5054002;28;20119;-70
2021/06/05 00:53:41;;;;;;;75.22;35.78;;;15.80;99.90;;;;;;5053999;28;20044;-69
2021/06/05 00:56:12;;;;;;;64.35;35.47;;;15.70;99.90;;;;;;5053874;28;20493;-69
2021/06/05 00:58:38;;;;;;;82.63;35.67;;;15.70;99.90;;;;;;5054190;28;20442;-70
2021/06/05 01:01:10;;;;;;;79.38;35.78;;;15.70;99.90;;;;;;5053976;28;20036;-69
2021/06/05 01:03:38;;;;;;;79.10;34.10;;;15.50;99.90;;;;;;5054184;28;20051;-69
2021/06/05 01:06:12;;;;;;;71.55;33.83;;;15.40;99.90;;;;;;5053998;28;20112;-69
2021/06/05 01:08:54;;;;;;;58.47;32.08;;;15.40;99.90;;;;;;5053407;28;20079;-70
2021/06/05 01:11:43;;;;;;;51.28;30.08;;;15.40;99.90;;;;;;5054400;28;20469;-69
2021/06/05 01:14:39;;;;;;;51.67;30.00;;;15.50;99.90;;;;;;5053678;28;20079;-69
2021/06/05 01:17:12;;;;;;;57.75;31.58;;;15.50;99.90;;;;;;5053595;28;20459;-69
2021/06/05 01:19:39;;;;;;;47.53;26.90;;;15.40;99.90;;;;;;5053242;28;20037;-69
2021/06/05 01:22:23;;;;;;;45.92;29.90;;;15.30;99.90;;;;;;5053567;28;20041;-69
2021/06/05 01:25:21;;;;;;;54.47;27.92;;;15.40;99.90;;;;;;5053822;28;20041;-69
2021/06/05 01:28:07;;;;;;;51.08;28.55;;;15.30;99.90;;;;;;5054081;28;20481;-70
2021/06/05 01:30:40;;;;;;;67.40;30.88;;;15.20;99.90;;;;;;5053097;28;20094;-69
2021/06/05 01:33:06;;;;;;;;;;;15.10;99.90;;;;;;5053910;28;20040;-69
2021/06/05 01:35:33;;;;;;;48.30;27.15;;;15.10;99.90;;;;;;5053791;28;20281;-69
2021/06/05 01:38:02;;;;;;;48.20;28.95;;;15.20;99.90;;;;;;5053448;28;20485;-69
2021/06/05 01:40:28;;;;;;;42.70;26.77;;;15.20;99.90;;;;;;5053034;28;20048;-69
2021/06/05 01:42:57;;;;;;;36.50;24.80;;;15.30;99.90;;;;;;5053554;28;20493;-69
2021/06/05 01:45:27;;;;;;;37.95;26.55;;;15.50;99.90;;;;;;5053791;28;20045;-70
2021/06/05 01:47:54;;;;;;;43.58;27.98;;;15.70;99.90;;;;;;5053841;28;20576;-70
2021/06/05 01:50:22;;;;;;;47.13;29.27;;;15.70;99.90;;;;;;5052788;28;20500;-69
2021/06/05 01:52:49;;;;;;;42.47;27.55;;;15.70;99.90;;;;;;5054199;28;20033;-69
2021/06/05 01:55:24;;;;;;;40.88;27.83;;;15.70;99.90;;;;;;5057415;28;20044;-69
2021/06/05 01:57:55;;;;;;;45.42;29.67;;;15.60;99.90;;;;;;5057765;28;20087;-69
2021/06/05 02:00:29;;;;;;;48.63;27.95;;;15.60;99.90;;;;;;5056873;28;20037;-69
2021/06/05 02:02:55;;;;;;;49.42;30.77;;;15.50;99.90;;;;;;5057504;28;20083;-69
2021/06/05 02:05:23;;;;;;;56.67;32.47;;;15.40;99.90;;;;;;5057798;28;20539;-69
2021/06/05 02:07:52;;;;;;;40.80;26.60;;;15.40;99.90;;;;;;5057461;28;20040;-69
2021/06/05 02:10:20;;;;;;;46.35;30.33;;;15.50;99.90;;;;;;5056738;28;20151;-69
2021/06/05 02:12:49;;;;;;;50.28;31.10;;;15.60;99.90;;;;;;5057046;28;20492;-69
2021/06/05 02:15:25;;;;;;;43.65;28.42;;;15.50;99.90;;;;;;5056995;28;20074;-69
2021/06/05 02:17:51;;;;;;;52.60;31.73;;;15.60;99.90;;;;;;5057389;28;20399;-69
2021/06/05 02:20:24;;;;;;;44.65;29.42;;;15.60;99.90;;;;;;5056670;28;20078;-69
2021/06/05 02:22:52;;;;;;;48.97;32.03;;;15.70;99.90;;;;;;5057180;28;20072;-69
2021/06/05 02:25:23;;;;;;;57.67;33.42;;;15.70;99.90;;;;;;5057279;28;20182;-70
2021/06/05 02:27:54;;;;;;;42.85;28.88;;;15.70;99.90;;;;;;5057443;28;20048;-69
2021/06/05 02:30:25;;;;;;;52.25;31.52;;;15.70;99.90;;;;;;5056604;28;20037;-70
2021/06/05 02:32:52;;;;;;;55.97;32.88;;;15.80;99.90;;;;;;5056835;28;20041;-70
2021/06/05 02:35:28;;;;;;;66.28;36.25;;;15.60;99.90;;;;;;5056865;28;20448;-69
2021/06/05 02:37:54;;;;;;;66.35;35.90;;;15.60;99.90;;;;;;5056681;28;20053;-69
2021/06/05 02:40:25;;;;;;;66.20;35.65;;;15.60;99.90;;;;;;5056069;28;20041;-69
2021/06/05 02:42:52;;;;;;;62.35;35.25;;;15.70;99.90;;;;;;5057167;28;20048;-69
2021/06/05 02:45:39;;;;;;;68.97;36.55;;;15.70;99.90;;;;;;5056911;28;20114;-69
2021/06/05 02:48:05;;;;;;;81.60;40.97;;;15.80;99.90;;;;;;5056747;28;20037;-69
2021/06/05 02:50:37;;;;;;;83.63;40.00;;;15.80;99.90;;;;;;5056078;28;20041;-69
2021/06/05 02:53:04;;;;;;;87.22;40.03;;;15.70;99.90;;;;;;5057215;28;20037;-69
2021/06/05 02:55:31;;;;;;;68.95;36.92;;;15.60;99.90;;;;;;5056351;28;20037;-70
2021/06/05 02:57:57;;;;;;;67.75;37.75;;;15.50;99.90;;;;;;5056517;28;20048;-69
2021/06/05 03:00:26;;;;;;;77.72;39.55;;;15.60;99.90;;;;;;5055872;28;20044;-69
2021/06/05 03:02:52;;;;;;;63.35;34.88;;;15.60;99.90;;;;;;5056209;28;20040;-69
2021/06/05 03:05:18;;;;;;;63.67;35.30;;;15.70;99.90;;;;;;5056799;28;20041;-69
2021/06/05 03:07:43;;;;;;;75.00;37.63;;;15.60;99.90;;;;;;5056403;28;20481;-69
2021/06/05 03:10:10;;;;;;;67.30;36.65;;;15.60;99.90;;;;;;5055815;28;20041;-70
2021/06/05 03:12:35;;;;;;;60.75;33.60;;;15.50;99.90;;;;;;5055832;28;20037;-70
2021/06/05 03:15:04;;;;;;;53.30;31.75;;;15.50;99.90;;;;;;5056243;28;20121;-70
2021/06/05 03:17:30;;;;;;;57.45;33.90;;;15.60;99.90;;;;;;5056107;28;20045;-70
2021/06/05 03:19:55;;;;;;;76.35;37.92;;;15.70;99.90;;;;;;5055499;28;20033;-70
2021/06/05 03:22:21;;;;;;;64.15;34.35;;;15.60;99.90;;;;;;5055728;28;20036;-69
2021/06/05 03:24:47;;;;;;;49.95;32.33;;;15.60;99.90;;;;;;5056282;28;20051;-69
2021/06/05 03:27:13;;;;;;;58.05;33.47;;;15.80;99.90;;;;;;5054765;28;20114;-70
2021/06/05 03:29:38;;;;;;;54.72;33.35;;;15.70;99.90;;;;;;5055263;28;20044;-70
2021/06/05 03:32:08;;;;;;;48.85;31.52;;;15.80;99.90;;;;;;5055901;28;20115;-70
2021/06/05 03:34:34;;;;;;;52.30;33.72;;;15.90;99.90;;;;;;5055436;28;20128;-70
2021/06/05 03:37:00;;;;;;;53.22;32.67;;;15.90;99.90;;;;;;5055364;28;20521;-70
2021/06/05 03:39:25;;;;;;;50.55;33.80;;;15.80;99.90;;;;;;5055210;28;20366;-70
2021/06/05 03:41:51;;;;;;;49.67;32.97;;;15.90;99.90;;;;;;5055591;28;20127;-69
2021/06/05 03:44:17;;;;;;;53.80;34.13;;;15.80;99.90;;;;;;5055927;28;20045;-69
2021/06/05 03:46:43;;;;;;;49.60;32.25;;;15.80;99.90;;;;;;5055841;28;20503;-69
2021/06/05 03:49:09;;;;;;;53.65;33.88;;;15.80;99.90;;;;;;5055326;28;20037;-70
2021/06/05 03:51:36;;;;;;;53.33;33.28;;;15.90;99.90;;;;;;5055046;28;20382;-70
2021/06/05 03:54:02;;;;;;;56.90;34.13;;;15.90;99.90;;;;;;5055457;28;20041;-69
2021/06/05 03:56:28;;;;;;;55.00;34.17;;;15.80;99.90;;;;;;5055456;28;20052;-69
2021/06/05 03:58:55;;;;;;;58.28;34.45;;;15.80;99.90;;;;;;5054864;28;20488;-70
2021/06/05 04:01:23;;;;;;;59.95;35.75;;;15.90;99.90;;;;;;5055046;28;20040;-69
2021/06/05 04:03:50;;;;;;;55.42;33.22;;;15.90;99.90;;;;;;5054903;28;20400;-69
2021/06/05 04:06:19;;;;;;;54.75;33.92;;;15.90;99.90;;;;;;5055042;28;20114;-69
2021/06/05 04:08:45;;;;;;;53.88;33.95;;;15.90;99.90;;;;;;5054671;28;20094;-70
2021/06/05 04:11:11;;;;;;;50.60;33.08;;;15.90;99.90;;;;;;5054869;28;20035;-69
2021/06/05 04:13:37;;;;;;;56.00;33.08;;;16.00;99.90;;;;;;5054794;28;20111;-69
2021/06/05 04:16:03;;;;;;;59.15;35.28;;;16.00;99.90;;;;;;5054370;28;20037;-69
2021/06/05 04:18:36;;;;;;;55.60;33.45;;;15.80;99.90;;;;;;5054367;28;20037;-70
2021/06/05 04:21:05;;;;;;;54.80;36.00;;;15.90;99.90;;;;;;5055026;28;20453;-69
2021/06/05 04:23:32;;;;;;;53.80;34.80;;;16.00;99.90;;;;;;5055052;28;20043;-69
2021/06/05 04:25:59;;;;;;;48.63;33.08;;;16.00;99.90;;;;;;5054871;28;20404;-69
2021/06/05 04:28:26;;;;;;;48.78;32.13;;;16.00;99.90;;;;;;5054986;28;20044;-69
2021/06/05 04:30:54;;;;;;;47.53;31.42;;;16.10;99.90;;;;;;5055120;28;20041;-69
2021/06/05 04:33:22;;;;;;;50.05;31.27;;;16.00;99.90;;;;;;5054449;28;20045;-69
2021/06/05 04:35:57;;;;;;;45.95;29.80;;;16.00;99.90;;;;;;5054569;28;20480;-69
2021/06/05 04:38:23;;;;;;;44.72;30.67;;;16.00;99.90;;;;;;5054607;28;20071;-69
2021/06/05 04:40:49;;;;;;;46.88;30.00;;;16.00;99.90;;;;;;5053983;28;20037;-69
2021/06/05 04:43:17;;;;;;;43.22;31.38;;;15.90;99.90;;;;;;5054608;28;20045;-69
2021/06/05 04:45:43;;;;;;;41.92;29.80;;;15.90;99.90;;;;;;5054765;28;20398;-69
2021/06/05 04:48:10;;;;;;;41.30;29.55;;;15.90;99.90;;;;;;5054672;28;20033;-69
2021/06/05 04:50:38;;;;;;;40.80;29.67;;;15.90;99.90;;;;;;5053566;28;20614;-69
2021/06/05 04:53:05;;;;;;;42.40;29.65;;;15.90;99.90;;;;;;5054592;28;20037;-69
2021/06/05 04:55:32;;;;;;;42.30;29.42;;;15.90;99.90;;;;;;5054184;28;20127;-69
2021/06/05 04:57:57;;;;;;;44.13;31.90;;;15.90;99.90;;;;;;5054510;28;20044;-69
2021/06/05 05:00:42;;;;;;;41.05;30.92;;;15.80;99.90;;;;;;5053666;28;20095;-69
2021/06/05 05:03:10;;;;;;;46.28;33.63;;;15.90;99.90;;;;;;5054258;28;20037;-69
2021/06/05 05:05:37;;;;;;;46.70;32.90;;;15.90;99.90;;;;;;5054298;28;20080;-69
2021/06/05 05:08:04;;;;;;;47.45;30.55;;;15.80;99.90;;;;;;5054358;28;20091;-69
2021/06/05 05:10:34;;;;;;;48.97;32.63;;;15.90;99.90;;;;;;5053407;28;20039;-69
2021/06/05 05:13:01;;;;;;;55.08;33.30;;;15.90;99.90;;;;;;5054207;28;20091;-69
2021/06/05 05:15:27;;;;;;;53.92;33.20;;;15.90;99.90;;;;;;5053522;28;20043;-69
2021/06/05 05:17:53;;;;;;;56.05;34.42;;;15.90;99.90;;;;;;5054153;28;20074;-69
2021/06/05 05:20:23;;;;;;;48.50;31.58;;;15.80;99.90;;;;;;5053462;28;20065;-69
2021/06/05 05:22:49;;;;;;;57.30;35.47;;;15.80;99.90;;;;;;5053725;28;20037;-69
2021/06/05 05:25:15;;;;;;;46.97;29.23;;;15.80;99.90;;;;;;5053602;28;20489;-69
2021/06/05 05:27:41;;;;;;;49.92;28.95;;;15.80;99.90;;;;;;5052636;28;20037;-69
2021/06/05 05:30:23;;;;;;;47.10;28.23;;;15.80;99.90;;;;;;5053049;28;20086;-69
2021/06/05 05:32:49;;;;;;;48.78;28.10;;;15.80;99.90;;;;;;5053550;28;20076;-69
2021/06/05 05:35:15;;;;;;;50.15;27.85;;;15.70;99.90;;;;;;5054006;28;20040;-69
2021/06/05 05:37:42;;;;;;;49.65;28.70;;;15.70;99.90;;;;;;5053951;28;20045;-69
2021/06/05 05:40:09;;;;;;;45.17;26.80;;;15.70;99.90;;;;;;5052917;28;20054;-69
2021/06/05 05:42:36;;;;;;;43.30;26.83;;;15.70;99.90;;;;;;5053293;28;20152;-70
2021/06/05 05:45:04;;;;;;;42.97;23.15;;;15.70;99.90;;;;;;5053727;28;20166;-69
2021/06/05 05:47:29;;;;;;;40.38;24.35;;;15.60;99.90;;;;;;5053372;28;20536;-69
2021/06/05 05:49:55;;;;;;;36.42;22.90;;;15.60;99.90;;;;;;5053490;28;20122;-69
2021/06/05 05:52:21;;;;;;;33.33;20.05;;;15.60;99.90;;;;;;5053958;28;20496;-69
2021/06/05 05:54:46;;;;;;;33.50;18.75;;;15.60;99.90;;;;;;5053642;28;20051;-69
2021/06/05 05:57:12;;;;;;;29.40;18.80;;;15.60;99.90;;;;;;5053464;28;20460;-69
2021/06/05 05:59:38;;;;;;;29.58;19.02;;;15.60;99.90;;;;;;5052677;28;20079;-69
2021/06/05 06:02:05;;;;;;;30.05;19.35;;;15.50;99.90;;;;;;5053160;28;20045;-69
2021/06/05 06:04:31;;;;;;;30.02;19.33;;;15.50;99.90;;;;;;5053799;28;20473;-69
2021/06/05 06:06:56;;;;;;;30.65;19.02;;;15.50;99.90;;;;;;5053356;28;20043;-69
2021/06/05 06:09:22;;;;;;;29.75;18.25;;;15.40;99.90;;;;;;5052750;28;20389;-69
2021/06/05 06:11:48;;;;;;;26.05;15.95;;;15.40;99.90;;;;;;5052930;28;20538;-69
2021/06/05 06:14:15;;;;;;;25.23;17.08;;;15.40;99.90;;;;;;5053554;28;20052;-69
2021/06/05 06:16:40;;;;;;;27.42;16.95;;;15.30;99.90;;;;;;5053505;28;20041;-69
2021/06/05 06:19:08;;;;;;;31.55;18.60;;;15.40;99.90;;;;;;5053003;28;20504;-69
2021/06/05 06:21:34;;;;;;;24.42;15.77;;;15.40;99.90;;;;;;5052892;28;20044;-69
2021/06/05 06:24:00;;;;;;;21.05;14.43;;;15.30;99.90;;;;;;5052960;28;20040;-69
2021/06/05 06:26:30;;;;;;;25.25;15.43;;;15.30;99.90;;;;;;5052973;28;20068;-69
2021/06/05 06:29:06;;;;;;;20.52;13.45;;;15.20;99.90;;;;;;5052778;28;20098;-70
2021/06/05 06:31:33;;;;;;;21.08;13.70;;;15.10;99.90;;;;;;5053029;28;20080;-70
2021/06/05 06:33:58;;;;;;;24.45;14.75;;;15.10;99.90;;;;;;5053382;28;20481;-70
2021/06/05 06:36:25;;;;;;;23.60;13.75;;;15.00;99.90;;;;;;5053250;28;20041;-69
2021/06/05 06:38:51;;;;;;;22.55;14.18;;;15.00;99.90;;;;;;5053513;28;20040;-70
2021/06/05 06:41:21;;;;;;;16.38;12.20;;;14.90;99.90;;;;;;5056964;28;20044;-69
2021/06/05 06:43:47;;;;;;;16.50;12.20;;;15.00;99.90;;;;;;5055699;28;20037;-69
2021/06/05 06:46:18;;;;;;;16.70;11.90;;;15.00;99.90;;;;;;5057131;28;20043;-70
2021/06/05 06:48:45;;;;;;;14.60;11.02;;;15.00;99.90;;;;;;5056185;28;20052;-70
2021/06/05 06:51:11;;;;;;;16.63;11.00;;;14.80;99.90;;;;;;5056398;28;20041;-70
2021/06/05 06:53:37;;;;;;;14.55;11.35;;;14.80;99.90;;;;;;5056582;28;20033;-70
2021/06/05 06:56:04;;;;;;;15.35;11.55;;;14.80;99.90;;;;;;5056852;28;20043;-70
2021/06/05 06:58:31;;;;;;;16.20;10.55;;;14.80;99.90;;;;;;5055851;28;20110;-70
2021/06/05 07:00:57;;;;;;;14.85;10.77;;;14.80;99.90;;;;;;5056677;28;20041;-69
2021/06/05 07:03:23;;;;;;;13.40;10.40;;;14.90;99.90;;;;;;5056187;28;20049;-70
2021/06/05 07:05:49;;;;;;;13.15;10.32;;;15.00;99.90;;;;;;5056269;28;20389;-70
2021/06/05 07:08:18;;;;;;;14.55;10.63;;;14.90;99.90;;;;;;5056228;28;20064;-70
2021/06/05 07:10:46;;;;;;;14.23;11.32;;;14.90;99.90;;;;;;5055582;28;20032;-70
2021/06/05 07:13:12;;;;;;;17.80;12.68;;;14.80;99.90;;;;;;5056524;28;20037;-70
2021/06/05 07:15:38;;;;;;;15.30;12.40;;;14.80;99.90;;;;;;5055863;28;20037;-69
2021/06/05 07:18:06;;;;;;;17.02;13.55;;;14.90;99.90;;;;;;5056003;28;20048;-69
2021/06/05 07:20:32;;;;;;;17.73;13.43;;;15.00;99.90;;;;;;5055850;28;20071;-69
2021/06/05 07:22:59;;;;;;;22.55;15.75;;;15.00;99.90;;;;;;5055973;28;20114;-69
2021/06/05 07:25:27;;;;;;;24.65;16.95;;;14.90;99.90;;;;;;5056493;28;20483;-68
2021/06/05 07:27:54;;;;;;;22.10;17.10;;;14.90;99.90;;;;;;5055842;28;20071;-69
2021/06/05 07:30:20;;;;;;;29.13;19.75;;;14.90;99.90;;;;;;5055556;28;20037;-69
2021/06/05 07:32:45;;;;;;;29.52;21.45;;;15.00;99.90;;;;;;5055704;28;20067;-69
2021/06/05 07:35:11;;;;;;;32.65;22.23;;;14.90;99.90;;;;;;5055775;28;20037;-69
2021/06/05 07:37:37;;;;;;;37.25;26.40;;;15.00;99.90;;;;;;5056135;28;20358;-69
2021/06/05 07:40:07;;;;;;;37.95;26.85;;;15.10;99.90;;;;;;5054985;28;20496;-69
2021/06/05 07:42:37;;;;;;;40.72;28.63;;;15.00;99.90;;;;;;5054694;28;20033;-68
2021/06/05 07:45:06;;;;;;;40.45;27.63;;;15.20;99.90;;;;;;5055400;28;20044;-69
2021/06/05 07:47:32;;;;;;;46.17;31.40;;;15.20;99.90;;;;;;5055449;28;20116;-68
2021/06/05 07:49:57;;;;;;;42.22;30.15;;;15.30;99.90;;;;;;5054516;28;20068;-69
2021/06/05 07:52:24;;;;;;;41.70;30.08;;;15.40;99.90;;;;;;5054781;28;20037;-69
2021/06/05 07:54:54;;;;;;;47.40;32.17;;;15.40;99.90;;;;;;5055698;28;20060;-69
2021/06/05 07:57:23;;;;;;;41.38;29.65;;;15.40;99.90;;;;;;5055224;28;20045;-69
2021/06/05 07:59:49;;;;;;;42.22;30.70;;;15.40;99.90;;;;;;5054906;28;20119;-69
2021/06/05 08:02:16;;;;;;;47.17;32.97;;;15.50;99.90;;;;;;5055511;28;20124;-69
2021/06/05 08:04:42;;;;;;;42.33;29.92;;;15.60;99.90;;;;;;5055366;28;20045;-69
2021/06/05 08:07:08;;;;;;;44.92;31.80;;;15.70;99.90;;;;;;5055005;28;20044;-69
2021/06/05 08:09:34;;;;;;;40.65;30.55;;;15.70;99.90;;;;;;5054655;28;20044;-69
2021/06/05 08:12:00;;;;;;;43.40;31.00;;;15.70;99.90;;;;;;5055492;28;20392;-69
2021/06/05 08:14:26;;;;;;;38.78;29.17;;;15.90;99.90;;;;;;5054891;28;20438;-69
2021/06/05 08:16:52;;;;;;;37.80;28.63;;;16.10;99.90;;;;;;5054852;28;20115;-69
2021/06/05 08:19:18;;;;;;;35.20;27.85;;;16.10;99.90;;;;;;5054474;28;20417;-69
2021/06/05 08:21:46;;;;;;;36.20;28.02;;;16.00;99.90;;;;;;5054568;28;20037;-69
2021/06/05 08:24:14;;;;;;;39.03;29.25;;;16.10;99.90;;;;;;5054498;28;20041;-69
2021/06/05 08:26:40;;;;;;;36.47;27.35;;;16.20;99.90;;;;;;5054486;28;20041;-70
2021/06/05 08:29:06;;;;;;;36.25;29.13;;;16.30;99.90;;;;;;5054154;28;20037;-70
2021/06/05 08:31:32;;;;;;;39.63;30.70;;;16.30;99.90;;;;;;5054367;28;20068;-69
2021/06/05 08:33:58;;;;;;;39.03;29.25;;;16.30;99.90;;;;;;5054708;28;20072;-69
2021/06/05 08:36:26;;;;;;;36.83;30.10;;;16.20;99.90;;;;;;5054899;28;20044;-70
2021/06/05 08:38:53;;;;;;;40.72;31.15;;;16.40;99.90;;;;;;5053890;28;20550;-70
2021/06/05 08:41:27;;;;;;;37.30;30.90;;;16.50;99.90;;;;;;5054216;28;20044;-70
2021/06/05 08:44:14;;;;;;;35.22;28.70;;;16.60;99.90;;;;;;5054743;28;20075;-69
2021/06/05 08:46:44;;;;;;;39.30;30.85;;;16.80;99.90;;;;;;5054717;28;20045;-70
2021/06/05 08:49:17;;;;;;;40.45;31.67;;;16.70;99.90;;;;;;5054434;28;20393;-70
2021/06/05 08:51:52;;;;;;;36.75;30.73;;;16.80;99.90;;;;;;5038058;28;20041;-70
2021/06/05 08:54:34;;;;;;;43.03;33.72;;;16.90;99.90;;;;;;5034286;28;20045;-70
2021/06/05 08:57:31;;;;;;;45.40;34.35;;;17.00;99.90;;;;;;5034102;28;20044;-70
2021/06/05 09:00:04;;;;;;;37.70;31.08;;;17.20;99.90;;;;;;5033886;28;20099;-70
2021/06/05 09:02:32;;;;;;;37.97;33.05;;;17.40;99.90;;;;;;5034216;28;20359;-70
2021/06/05 09:05:00;;;;;;;43.15;35.03;;;17.40;99.90;;;;;;5033819;28;20049;-69
2021/06/05 09:07:26;;;;;;;36.72;32.10;;;17.50;99.90;;;;;;5033821;28;20185;-70
2021/06/05 09:09:53;;;;;;;35.78;29.83;;;17.50;99.90;;;;;;5033627;28;20112;-69
2021/06/05 09:12:19;;;;;;;35.53;30.45;;;17.70;99.90;;;;;;5034414;28;20033;-69
2021/06/05 09:14:45;;;;;;;37.05;31.40;;;17.70;99.90;;;;;;5033609;28;20091;-69
2021/06/05 09:17:31;;;;;;;37.63;32.20;;;17.80;99.90;;;;;;5034071;28;20045;-69
2021/06/05 09:20:27;;;;;;;40.15;33.63;;;17.80;99.90;;;;;;5033746;28;20072;-69
2021/06/05 09:22:53;;;;;;;36.08;30.92;;;17.60;99.90;;;;;;5033761;28;20037;-69
2021/06/05 09:25:48;;;;;;;40.35;32.42;;;17.70;99.90;;;;;;5034193;28;20045;-69
2021/06/05 09:28:19;;;;;;;37.03;30.00;;;17.80;99.90;;;;;;5025447;28;20405;-69
2021/06/05 09:30:47;;;;;;;39.95;30.75;;;17.80;99.90;;;;;;5033053;28;20034;-69
2021/06/05 09:33:26;;;;;;;38.25;30.23;;;17.70;99.90;;;;;;5034211;28;20485;-69
2021/06/05 09:35:51;;;;;;;35.58;30.58;;;17.80;99.90;;;;;;5033597;28;20044;-68
2021/06/05 09:38:23;;;;;;;38.00;29.98;;;17.80;99.90;;;;;;5033427;28;20037;-70
2021/06/05 09:41:09;;;;;;;37.85;30.63;;;17.90;99.90;;;;;;5033026;28;20092;-69
2021/06/05 09:43:35;;;;;;;35.20;31.25;;;18.10;99.90;;;;;;5033495;28;20041;-69
2021/06/05 09:46:09;;;;;;;39.03;32.35;;;18.20;99.90;;;;;;5033274;28;20052;-69
2021/06/05 09:48:39;;;;;;;36.25;31.15;;;18.10;99.90;;;;;;5033255;28;20420;-70
2021/06/05 09:51:44;;;;;;;37.03;31.20;;;18.00;99.90;;;;;;5033339;28;20033;-69
2021/06/05 09:54:13;;;;;;;37.50;30.75;;;18.00;99.90;;;;;;5033784;28;20100;-68
2021/06/05 09:56:45;;;;;;;37.70;31.67;;;17.90;99.90;;;;;;5033230;28;20080;-69
2021/06/05 09:59:35;;;;;;;36.20;30.63;;;18.00;99.90;;;;;;5032104;28;20069;-69
2021/06/05 10:02:05;;;;;;;36.95;31.50;;;18.00;99.90;;;;;;5033319;28;20037;-68
2021/06/05 10:04:34;;;;;;;35.97;31.35;;;17.90;99.90;;;;;;5033364;28;20041;-69
2021/06/05 10:07:02;;;;;;;36.58;31.08;;;18.00;99.90;;;;;;5033128;28;20050;-70
2021/06/05 10:09:35;;;;;;;38.88;32.75;;;18.00;99.90;;;;;;5033256;28;20492;-70
2021/06/05 10:12:04;;;;;;;40.65;32.17;;;17.90;99.90;;;;;;5033671;28;20087;-69
2021/06/05 10:14:45;;;;;;;40.03;33.40;;;18.00;99.90;;;;;;5034772;28;20041;-70
2021/06/05 10:17:39;;;;;;;40.85;32.83;;;17.80;99.90;;;;;;5037482;28;20037;-70
2021/06/05 10:20:38;;;;;;;41.17;32.13;;;17.90;99.90;;;;;;5036865;28;20041;-70
2021/06/05 10:23:05;;;;;;;38.30;31.75;;;18.00;99.90;;;;;;5036928;28;20547;-69
2021/06/05 10:25:53;;;;;;;38.00;31.08;;;18.00;99.90;;;;;;5035814;28;20092;-69
2021/06/05 10:28:22;;;;;;;39.75;32.55;;;18.10;99.90;;;;;;5029825;28;20057;-69
2021/06/05 10:30:56;;;;;;;41.30;33.42;;;18.10;99.90;;;;;;5036514;28;20064;-69
2021/06/05 10:33:35;;;;;;;45.55;33.78;;;18.30;99.90;;;;;;5037231;28;20045;-69
2021/06/05 10:36:04;;;;;;;42.25;34.90;;;18.20;99.90;;;;;;5036989;28;20045;-69
2021/06/05 10:38:41;;;;;;;40.80;33.45;;;18.30;99.90;;;;;;5036626;28;20043;-70
2021/06/05 10:41:11;;;;;;;41.67;34.30;;;18.40;99.90;;;;;;5037229;28;20045;-69
2021/06/05 10:43:37;;;;;;;37.53;31.98;;;18.30;99.90;;;;;;5037211;28;20389;-69
2021/06/05 10:46:28;;;;;;;41.78;33.33;;;18.40;99.90;;;;;;5035270;28;20052;-69
2021/06/05 10:49:09;;;;;;;41.60;33.55;;;18.40;99.90;;;;;;5016516;28;20042;-69
2021/06/05 10:51:39;;;;;;;44.58;35.35;;;18.50;99.90;;;;;;5016535;28;20520;-69
2021/06/05 10:54:11;;;;;;;42.97;35.08;;;18.50;99.90;;;;;;5017478;28;20532;-69
2021/06/05 10:56:41;;;;;;;39.80;33.28;;;18.60;99.90;;;;;;5016839;28;20069;-69
2021/06/05 10:59:38;;;;;;;50.63;38.58;;;18.80;99.90;;;;;;5016403;28;20038;-69
2021/06/05 11:02:04;;;;;;;46.50;36.08;;;19.00;99.90;;;;;;5017057;28;20092;-69
2021/06/05 11:04:33;;;;;;;46.70;38.17;;;19.10;99.90;;;;;;5016763;28;20045;-69
2021/06/05 11:07:01;;;;;;;49.45;38.95;;;19.20;99.90;;;;;;5016461;28;20129;-69
2021/06/05 11:09:31;;;;;;;48.90;37.28;;;19.40;99.90;;;;;;5016033;28;20402;-69
2021/06/05 11:12:23;;;;;;;44.33;37.25;;;19.50;99.90;;;;;;5016590;28;20045;-69
2021/06/05 11:14:50;;;;;;;47.33;39.13;;;19.50;99.90;;;;;;5016142;28;20064;-69
2021/06/05 11:17:19;;;;;;;42.90;35.97;;;19.50;99.90;;;;;;5016799;28;20056;-68
2021/06/05 11:19:51;;;;;;;47.95;38.05;;;19.60;99.90;;;;;;5014491;28;20100;-68
2021/06/05 11:22:26;;;;;;;41.80;34.17;;;19.90;99.90;;;;;;5016406;28;20037;-70
2021/06/05 11:25:06;;;;;;;41.20;34.97;;;20.10;99.90;;;;;;5015225;28;20484;-70
2021/06/05 11:27:38;;;;;;;38.72;34.53;;;20.30;99.90;;;;;;5015746;28;20065;-71
2021/06/05 11:30:22;;;;;;;37.97;32.35;;;20.40;99.90;;;;;;5015742;28;20467;-70
2021/06/05 11:33:08;;;;;;;37.63;32.17;;;20.40;99.90;;;;;;5016229;28;20371;-70
2021/06/05 11:35:43;;;;;;;35.65;31.60;;;20.30;99.90;;;;;;5016435;28;20038;-71
2021/06/05 11:38:11;;;;;;;33.13;29.55;;;20.30;99.90;;;;;;5015768;28;20042;-70
2021/06/05 11:40:54;;;;;;;34.40;29.67;;;20.30;99.90;;;;;;5015311;28;20497;-70
2021/06/05 11:43:39;;;;;;;33.45;29.73;;;20.30;99.90;;;;;;5015983;28;20034;-71
2021/06/05 11:46:22;;;;;;;35.83;30.58;;;20.40;99.90;;;;;;5015873;28;20042;-70
2021/06/05 11:49:01;;;;;;;34.30;30.27;;;20.20;99.90;;;;;;5016079;28;20045;-71
2021/06/05 11:51:41;;;;;;;37.20;31.63;;;20.10;99.90;;;;;;5034337;28;20409;-71
2021/06/05 11:54:15;;;;;;;35.80;31.08;;;20.10;99.90;;;;;;5035706;28;20057;-71
2021/06/05 11:57:12;;;;;;;38.15;32.55;;;20.10;99.90;;;;;;5035453;28;20068;-70
2021/06/05 11:59:39;;;;;;;38.22;32.17;;;20.00;99.90;;;;;;5030650;28;20509;-71
2021/06/05 12:02:10;;;;;;;37.08;31.17;;;19.80;99.90;;;;;;5035136;28;20044;-70
2021/06/05 12:04:42;;;;;;;36.47;32.47;;;19.70;99.90;;;;;;5035760;28;20045;-70
2021/06/05 12:07:38;;;;;;;32.70;27.35;;;19.70;99.90;;;;;;5034556;28;20056;-70
2021/06/05 12:10:09;;;;;;;30.17;26.42;;;19.70;99.90;;;;;;5034277;28;20452;-71
2021/06/05 12:12:44;;;;;;;31.35;28.00;;;19.60;99.90;;;;;;5035330;28;20370;-71
2021/06/05 12:15:18;;;;;;;33.72;28.05;;;19.60;99.90;;;;;;5035245;28;20540;-71
2021/06/05 12:17:45;;;;;;;42.00;34.55;;;19.50;99.90;;;;;;5033712;28;20160;-71
2021/06/05 12:20:23;;;;;;;41.47;35.65;;;19.40;99.90;;;;;;5034540;28;20120;-71
2021/06/05 12:22:55;;;;;;;40.80;36.30;;;19.30;99.90;;;;;;5035220;28;20045;-71
2021/06/05 12:25:38;;;;;;;41.20;34.90;;;19.40;99.90;;;;;;5034726;28;20485;-71
2021/06/05 12:28:14;;;;;;;37.63;32.63;;;19.50;99.90;;;;;;5034988;28;20037;-71
2021/06/05 12:30:43;;;;;;;38.13;32.67;;;19.60;99.90;;;;;;5034446;28;20037;-71
2021/06/05 12:33:12;;;;;;;36.42;32.30;;;19.70;99.90;;;;;;5035006;28;20072;-71
2021/06/05 12:35:44;;;;;;;36.35;31.05;;;19.90;99.90;;;;;;5034801;28;20084;-71
2021/06/05 12:38:13;;;;;;;35.70;31.63;;;20.10;99.90;;;;;;5034502;28;20061;-71
2021/06/05 12:41:01;;;;;;;41.40;33.33;;;20.10;99.90;;;;;;5033859;28;20045;-71
2021/06/05 12:43:32;;;;;;;41.90;33.78;;;20.10;99.90;;;;;;5034548;28;20076;-70
2021/06/05 12:46:04;;;;;;;45.92;34.58;;;20.00;99.90;;;;;;5034104;28;20421;-71